Time;durP1;ratioP1;P1;durP2;ratioP2;P2;SDS_P1;SDS_P2;PMS_P1;PMS_P2;Temp;Humidity;BMP_temperature;BMP_pressure;BME280_temperature;BME280_humidity;BME280_pressure;Samples;Min_cycle;Max_cycle;Signal;HPM_P1;HPM_P2
2021/01/26 00:00:16;;;;;;;;;;;;;;;18.15;62.77;99792.88;5038272;28;1641;-59
2021/01/26 00:02:42;;;;;;;;;;;;;;;18.24;62.53;99788.44;5053896;28;1509;-59
2021/01/26 00:05:08;;;;;;;;;;;;;;;18.20;63.22;99789.75;5029968;28;1688;-59
2021/01/26 00:07:33;;;;;;;;;;;;;;;18.20;63.06;99806.63;5027257;28;1705;-59
2021/01/26 00:09:58;;;;;;;;;;;;;;;18.20;63.24;99800.44;5040700;28;1835;-59
2021/01/26 00:12:24;;;;;;;;;;;;;;;18.20;62.77;99789.75;5019383;28;1669;-59
2021/01/26 00:14:50;;;;;;;;;;;;;;;18.15;62.79;99790.22;5021673;28;1684;-59
2021/01/26 00:17:15;;;;;;;;;;;;;;;18.20;63.52;99816.50;5046036;28;1926;-59
2021/01/26 00:19:40;;;;;;;;;;;;;;;18.19;63.60;99810.31;5035622;28;1653;-68
2021/01/26 00:22:06;;;;;;;;;;;;;;;18.16;63.73;99815.94;5049039;28;1760;-59
2021/01/26 00:24:31;;;;;;;;;;;;;;;18.18;63.87;99808.63;5036195;28;1752;-59
2021/01/26 00:26:56;;;;;;;;;;;;;;;18.19;62.86;99807.63;5039201;28;1628;-59
2021/01/26 00:29:22;;;;;;;;;;;;;;;18.19;62.83;99798.78;5045378;28;1691;-67
2021/01/26 00:31:47;;;;;;;;;;;;;;;18.18;63.14;99792.56;5052309;28;1771;-59
2021/01/26 00:34:13;;;;;;;;;;;;;;;18.18;63.84;99778.34;5026906;28;1719;-67
2021/01/26 00:36:38;;;;;;;;;;;;;;;18.16;62.83;99757.09;5020488;28;1886;-59
2021/01/26 00:39:03;;;;;;;;;;;;;;;18.12;63.42;99738.84;5048276;28;1811;-67
2021/01/26 00:41:29;;;;;;;;;;;;;;;18.14;63.64;99724.28;5044145;28;1624;-59
2021/01/26 00:43:54;;;;;;;;;;;;;;;18.11;62.96;99721.94;5040831;28;1771;-59
2021/01/26 00:46:20;;;;;;;;;;;;;;;18.11;62.48;99719.28;5028327;28;1747;-59
2021/01/26 00:48:45;;;;;;;;;;;;;;;18.11;63.07;99715.75;5036975;28;1818;-59
2021/01/26 00:51:10;;;;;;;;;;;;;;;18.05;62.77;99723.41;5040985;28;1842;-68
2021/01/26 00:53:36;;;;;;;;;;;;;;;18.04;61.92;99752.97;5025981;28;1625;-68
2021/01/26 00:56:02;;;;;;;;;;;;;;;18.03;62.11;99745.97;5048361;28;1931;-60
2021/01/26 00:58:27;;;;;;;;;;;;;;;17.94;62.02;99736.19;5041068;28;1947;-68
2021/01/26 01:00:53;;;;;;;;;;;;;;;17.97;62.03;99739.38;5035200;28;1759;-59
2021/01/26 01:03:18;;;;;;;;;;;;;;;17.92;61.29;99722.94;5038202;28;1761;-59
2021/01/26 01:05:44;;;;;;;;;;;;;;;17.91;62.03;99742.69;5049385;28;1744;-59
2021/01/26 01:08:09;;;;;;;;;;;;;;;17.89;62.11;99744.66;5049214;28;1807;-68
2021/01/26 01:10:38;;;;;;;;;;;;;;;17.89;61.07;99750.03;5040883;28;1747;-68
2021/01/26 01:13:04;;;;;;;;;;;;;;;17.88;61.02;99742.97;5050900;28;1675;-68
2021/01/26 01:15:30;;;;;;;;;;;;;;;17.89;61.12;99745.50;5038514;28;1696;-59
2021/01/26 01:17:55;;;;;;;;;;;;;;;17.85;60.82;99744.13;5050616;28;1918;-68
2021/01/26 01:20:21;;;;;;;;;;;;;;;17.87;61.10;99744.81;5040798;28;1799;-59
2021/01/26 01:22:47;;;;;;;;;;;;;;;17.84;60.95;99737.09;5045567;28;1443;-68
2021/01/26 01:25:13;;;;;;;;;;;;;;;17.81;61.47;99741.88;5044166;28;1853;-67
2021/01/26 01:27:38;;;;;;;;;;;;;;;17.86;61.36;99758.34;5053434;28;1795;-68
2021/01/26 01:30:05;;;;;;;;;;;;;;;17.85;60.90;99741.47;5043393;28;1673;-68
2021/01/26 01:32:30;;;;;;;;;;;;;;;17.82;60.68;99727.50;5056348;28;1574;-68
2021/01/26 01:34:55;;;;;;;;;;;;;;;17.80;60.81;99724.97;5026026;28;1755;-68
2021/01/26 01:37:21;;;;;;;;;;;;;;;17.80;60.20;99729.50;5053233;28;1894;-59
2021/01/26 01:39:46;;;;;;;;;;;;;;;17.80;60.10;99718.81;5041005;28;1625;-68
2021/01/26 01:42:12;;;;;;;;;;;;;;;17.80;59.95;99718.81;5049889;28;1699;-59
2021/01/26 01:44:38;;;;;;;;;;;;;;;17.78;60.06;99705.56;5027474;28;1696;-67
2021/01/26 01:47:06;;;;;;;;;;;;;;;17.79;59.44;99714.47;5035068;28;1673;-59
2021/01/26 01:49:36;;;;;;;;;;;;;;;17.76;60.50;99720.94;5048733;28;1740;-68
2021/01/26 01:52:01;;;;;;;;;;;;;;;17.76;60.54;99717.44;5042378;28;1754;-58
2021/01/26 01:54:30;;;;;;;;;;;;;;;17.74;60.18;99730.94;5055199;28;1684;-68
2021/01/26 01:57:12;;;;;;;;;;;;;;;17.69;59.36;99741.28;5042720;28;1890;-68
2021/01/26 01:59:41;;;;;;;;;;;;;;;17.69;59.62;99741.28;5045609;28;1683;-59
2021/01/26 02:02:07;;;;;;;;;;;;;;;17.68;60.02;99732.38;5025052;28;1669;-59
2021/01/26 02:04:32;;;;;;;;;;;;;;;17.66;59.34;99720.16;5046757;28;1661;-68
2021/01/26 02:06:59;;;;;;;;;;;;;;;17.66;59.15;99722.84;5049374;28;1629;-68
2021/01/26 02:09:24;;;;;;;;;;;;;;;17.63;59.82;99720.50;5021191;28;1640;-68
2021/01/26 02:11:49;;;;;;;;;;;;;;;17.62;60.17;99724.16;5054700;28;1664;-68
2021/01/26 02:14:18;;;;;;;;;;;;;;;17.62;58.71;99721.47;5030735;28;1728;-67
2021/01/26 02:16:59;;;;;;;;;;;;;;;17.62;59.10;99716.97;5043541;28;1914;-59
2021/01/26 02:19:42;;;;;;;;;;;;;;;17.61;59.48;99717.13;5019570;28;1692;-59
2021/01/26 02:22:08;;;;;;;;;;;;;;;17.59;59.45;99716.44;5047534;28;1794;-69
2021/01/26 02:24:47;;;;;;;;;;;;;;;17.56;58.97;99714.91;5046719;28;1771;-59
2021/01/26 02:27:33;;;;;;;;;;;;;;;17.58;59.29;99715.59;5040196;28;1748;-67
2021/01/26 02:30:21;;;;;;;;;;;;;;;17.56;58.21;99698.84;5051330;28;1605;-59
2021/01/26 02:32:49;;;;;;;;;;;;;;;17.53;58.72;99695.63;5008900;28;1825;-68
2021/01/26 02:35:34;;;;;;;;;;;;;;;17.55;59.05;99710.56;5022493;28;1688;-67
2021/01/26 02:37:59;;;;;;;;;;;;;;;17.55;59.06;99704.34;5045861;28;1953;-59
2021/01/26 02:40:34;;;;;;;;;;;;;;;17.55;58.74;99693.66;5046885;28;1800;-68
2021/01/26 02:42:59;;;;;;;;;;;;;;;17.53;57.84;99690.28;5049542;28;1740;-59
2021/01/26 02:45:43;;;;;;;;;;;;;;;17.52;58.25;99704.66;5046803;28;1713;-68
2021/01/26 02:48:19;;;;;;;;;;;;;;;17.56;57.95;99690.00;5043065;28;1834;-59
2021/01/26 02:50:45;;;;;;;;;;;;;;;17.55;58.61;99699.88;5050998;28;1724;-68
2021/01/26 02:53:29;;;;;;;;;;;;;;;17.55;59.06;99699.88;5026686;28;1608;-68
2021/01/26 02:55:59;;;;;;;;;;;;;;;17.54;57.95;99686.66;5044882;28;1558;-68
2021/01/26 02:58:28;;;;;;;;;;;;;;;17.56;58.57;99688.16;5022141;28;1890;-67
2021/01/26 03:00:58;;;;;;;;;;;;;;;17.55;58.39;99677.63;5052793;22;2121;-53
2021/01/26 03:03:36;;;;;;;;;;;;;;;17.52;57.40;99686.78;5054172;28;825;-56
2021/01/26 03:06:01;;;;;;;;;;;;;;;17.49;57.54;99690.63;5054710;28;849;-55
2021/01/26 03:08:29;;;;;;;;;;;;;;;17.48;57.19;99696.09;5053449;28;1779;-56
2021/01/26 03:11:21;;;;;;;;;;;;;;;17.48;57.83;99698.78;5072977;23;3582;-59
2021/01/26 03:14:06;;;;;;;;;;;;;;;17.44;58.90;99690.22;5073296;28;1589;-68
2021/01/26 03:16:32;;;;;;;;;;;;;;;17.19;59.53;99697.16;5073736;28;1914;-68
2021/01/26 03:19:15;;;;;;;;;;;;;;;17.08;61.08;99703.53;5074951;28;1656;-59
2021/01/26 03:21:43;;;;;;;;;;;;;;;17.02;60.44;99728.16;5073981;28;1762;-68
2021/01/26 03:24:11;;;;;;;;;;;;;;;16.98;61.67;99734.78;5074811;28;1561;-59
2021/01/26 03:26:39;;;;;;;;;;;;;;;16.92;61.14;99730.03;5074594;28;1629;-59
2021/01/26 03:29:06;;;;;;;;;;;;;;;16.87;61.90;99727.81;5074802;28;1661;-59
2021/01/26 03:31:58;;;;;;;;;;;;;;;16.89;61.14;99725.84;5075160;28;1691;-61
2021/01/26 03:34:23;;;;;;;;;;;;;;;16.83;62.02;99707.72;5071160;28;1173;-59
2021/01/26 03:36:49;;;;;;;;;;;;;;;16.85;62.88;99731.59;5073665;28;1981;-68
2021/01/26 03:39:14;;;;;;;;;;;;;;;16.84;62.83;99735.25;5074549;28;1653;-59
2021/01/26 03:41:40;;;;;;;;;;;;;;;16.81;61.84;99732.84;5075144;28;761;-68
2021/01/26 03:44:06;;;;;;;;;;;;;;;16.82;61.67;99724.72;5075084;28;772;-59
2021/01/26 03:46:41;;;;;;;;;;;;;;;16.81;62.24;99725.72;5073969;28;1640;-68
2021/01/26 03:49:14;;;;;;;;;;;;;;;16.84;61.88;99721.91;5074106;28;1649;-68
2021/01/26 03:51:47;;;;;;;;;;;;;;;16.81;62.01;99706.16;5056769;28;1786;-59
2021/01/26 03:54:16;;;;;;;;;;;;;;;16.83;62.03;99714.88;5073027;28;1747;-59
2021/01/26 03:56:54;;;;;;;;;;;;;;;16.83;62.45;99725.56;5074027;28;1885;-68
2021/01/26 03:59:22;;;;;;;;;;;;;;;16.83;63.34;99728.22;5075061;28;792;-71
2021/01/26 04:01:53;;;;;;;;;;;;;;;16.86;64.45;99719.94;5084052;28;1796;-59
2021/01/26 04:04:31;;;;;;;;;;;;;;;16.86;63.86;99723.44;5068267;28;1379;-59
2021/01/26 04:07:01;;;;;;;;;;;;;;;16.87;64.59;99721.59;5074849;28;1413;-68
2021/01/26 04:09:33;;;;;;;;;;;;;;;16.84;64.20;99711.25;5082160;28;1444;-63
2021/01/26 04:12:15;;;;;;;;;;;;;;;16.80;64.55;99707.16;5082140;28;1600;-68
2021/01/26 04:15:00;;;;;;;;;;;;;;;16.80;63.71;99720.50;5085542;28;1635;-59
2021/01/26 04:17:32;;;;;;;;;;;;;;;16.77;63.77;99708.28;5092748;28;1914;-68
2021/01/26 04:20:08;;;;;;;;;;;;;;;16.76;64.37;99719.13;5093017;28;1758;-59
2021/01/26 04:22:34;;;;;;;;;;;;;;;16.71;64.97;99732.88;5056631;28;1728;-68
2021/01/26 04:24:59;;;;;;;;;;;;;;;16.71;64.54;99727.53;5075518;28;1707;-59
2021/01/26 04:27:25;;;;;;;;;;;;;;;16.70;63.92;99732.03;5074625;28;881;-68
2021/01/26 04:29:51;;;;;;;;;;;;;;;16.72;65.02;99733.75;5074711;28;835;-59
2021/01/26 04:32:17;;;;;;;;;;;;;;;16.67;64.02;99726.16;5076873;28;1628;-68
2021/01/26 04:34:42;;;;;;;;;;;;;;;16.65;64.32;99723.66;5093539;28;1608;-68
2021/01/26 04:37:08;;;;;;;;;;;;;;;16.64;64.00;99731.78;5091738;28;2027;-59
2021/01/26 04:39:33;;;;;;;;;;;;;;;16.65;64.81;99734.31;5081123;28;1710;-68
2021/01/26 04:42:31;;;;;;;;;;;;;;;16.74;64.32;99748.63;5096915;28;1659;-68
2021/01/26 04:45:01;;;;;;;;;;;;;;;16.95;63.53;99775.16;5040383;28;1705;-59
2021/01/26 04:47:50;;;;;;;;;;;;;;;17.14;63.74;99774.22;5080030;28;1738;-59
2021/01/26 04:50:36;;;;;;;;;;;;;;;17.28;64.14;99776.38;5085530;28;1616;-59
2021/01/26 04:53:04;;;;;;;;;;;;;;;17.40;62.98;99792.22;5083658;28;1675;-69
2021/01/26 04:55:33;;;;;;;;;;;;;;;17.54;63.46;99770.34;5094135;28;1727;-59
2021/01/26 04:58:13;;;;;;;;;;;;;;;17.66;63.05;99765.63;5060213;28;1897;-68
2021/01/26 05:00:48;;;;;;;;;;;;;;;17.79;62.05;99757.25;5088908;28;1663;-59
2021/01/26 05:03:29;;;;;;;;;;;;;;;17.92;61.75;99776.44;5089552;28;1704;-60
2021/01/26 05:05:59;;;;;;;;;;;;;;;17.98;62.05;99769.66;5075711;28;1565;-59
2021/01/26 05:08:26;;;;;;;;;;;;;;;18.07;61.89;99784.78;5096570;28;1868;-68
2021/01/26 05:10:56;;;;;;;;;;;;;;;18.16;61.72;99791.03;5096428;28;1718;-68
2021/01/26 05:13:23;;;;;;;;;;;;;;;18.23;61.10;99790.28;5093725;28;1762;-59
2021/01/26 05:15:59;;;;;;;;;;;;;;;18.32;61.57;99787.66;5093248;28;1660;-59
2021/01/26 05:18:27;;;;;;;;;;;;;;;18.42;61.01;99791.09;5088563;28;1977;-59
2021/01/26 05:20:54;;;;;;;;;;;;;;;18.50;61.28;99783.13;5084424;28;1797;-61
2021/01/26 05:23:22;;;;;;;;;;;;;;;18.52;61.24;99778.44;5093738;28;1710;-59
2021/01/26 05:25:48;;;;;;;;;;;;;;;18.57;60.94;99781.50;5093249;28;1620;-68
2021/01/26 05:28:14;;;;;;;;;;;;;;;18.59;61.01;99790.22;5084790;28;1781;-68
2021/01/26 05:30:40;;;;;;;;;;;;;;;18.67;60.35;99784.91;5088389;28;1770;-68
2021/01/26 05:33:06;;;;;;;;;;;;;;;18.69;60.67;99788.28;5082153;28;1683;-62
2021/01/26 05:35:32;;;;;;;;;;;;;;;18.81;60.17;99793.41;5093533;28;1727;-68
2021/01/26 05:37:57;;;;;;;;;;;;;;;18.82;59.57;99793.25;5082681;28;1952;-59
2021/01/26 05:40:26;;;;;;;;;;;;;;;18.77;60.12;99797.38;5089073;28;1703;-59
2021/01/26 05:42:53;;;;;;;;;;;;;;;18.76;60.20;99784.97;5089099;28;1774;-69
2021/01/26 05:45:21;;;;;;;;;;;;;;;18.66;60.72;99783.25;5061894;28;1706;-69
2021/01/26 05:47:47;;;;;;;;;;;;;;;18.63;59.96;99780.88;5087690;28;1836;-59
2021/01/26 05:50:23;;;;;;;;;;;;;;;18.58;60.50;99775.16;5085504;28;1698;-69
2021/01/26 05:52:48;;;;;;;;;;;;;;;18.56;60.41;99774.47;5082329;28;1755;-59
2021/01/26 05:55:20;;;;;;;;;;;;;;;18.54;60.37;99775.63;5070997;28;1795;-59
2021/01/26 05:57:48;;;;;;;;;;;;;;;18.54;60.28;99763.06;5064034;28;1894;-59
2021/01/26 06:00:16;;;;;;;;;;;;;;;18.52;60.82;99765.06;5043306;28;10811;-69
2021/01/26 06:02:41;;;;;;;;;;;;;;;18.50;60.48;99764.38;5067921;28;1366;-59
2021/01/26 06:05:10;;;;;;;;;;;;;;;18.48;60.26;99774.41;5077181;28;1465;-59
2021/01/26 06:07:35;;;;;;;;;;;;;;;18.37;60.59;99762.13;5078164;28;1691;-59
2021/01/26 06:10:14;;;;;;;;;;;;;;;18.37;60.67;99785.38;5082308;28;1406;-59
2021/01/26 06:12:49;;;;;;;;;;;;;;;18.35;61.33;99798.91;5084589;28;1656;-59
2021/01/26 06:15:19;;;;;;;;;;;;;;;18.33;61.00;99789.38;5078056;28;1510;-61
2021/01/26 06:17:45;;;;;;;;;;;;;;;18.28;61.28;99790.66;5076852;28;1981;-59
2021/01/26 06:20:13;;;;;;;;;;;;;;;18.23;61.70;99795.63;5074850;28;1513;-68
2021/01/26 06:22:38;;;;;;;;;;;;;;;18.20;61.77;99795.91;5084665;28;1417;-67
2021/01/26 06:25:07;;;;;;;;;;;;;;;18.25;61.13;99809.69;5063727;28;1699;-69
2021/01/26 06:27:38;;;;;;;;;;;;;;;18.23;60.92;99792.13;5086058;28;1668;-59
2021/01/26 06:30:17;;;;;;;;;;;;;;;18.33;61.58;99800.91;5093927;28;1631;-63
2021/01/26 06:33:09;;;;;;;;;;;;;;;18.25;61.30;99816.88;5086283;28;1636;-63
2021/01/26 06:35:42;;;;;;;;;;;;;;;18.26;61.40;99822.09;5069943;28;1584;-66
2021/01/26 06:38:13;;;;;;;;;;;;;;;18.19;62.20;99804.97;5073543;28;1937;-60
2021/01/26 06:40:52;;;;;;;;;;;;;;;18.19;62.03;99794.25;5074696;28;1632;-65
2021/01/26 06:43:29;;;;;;;;;;;;;;;18.16;62.11;99799.06;5053774;28;1519;-64
2021/01/26 06:46:22;;;;;;;;;;;;;;;18.22;62.35;99820.72;5053197;28;1599;-58
2021/01/26 06:48:47;;;;;;;;;;;;;;;18.15;62.41;99837.53;5073071;28;1475;-59
2021/01/26 06:51:31;;;;;;;;;;;;;;;18.06;63.22;99841.94;5072149;28;1506;-61
2021/01/26 06:54:08;;;;;;;;;;;;;;;18.14;62.32;99844.69;5066808;28;1566;-59
2021/01/26 06:56:52;;;;;;;;;;;;;;;18.06;63.07;99836.59;5073380;28;1881;-66
2021/01/26 06:59:36;;;;;;;;;;;;;;;18.10;62.59;99811.22;5063694;28;1536;-60
2021/01/26 07:02:12;;;;;;;;;;;;;;;18.18;62.81;99816.66;5071479;28;1522;-67
2021/01/26 07:05:04;;;;;;;;;;;;;;;18.12;62.27;99836.00;5071567;28;1794;-58
2021/01/26 07:07:41;;;;;;;;;;;;;;;18.13;63.02;99868.97;5071362;28;1545;-59
2021/01/26 07:10:25;;;;;;;;;;;;;;;18.10;64.46;99872.75;5054090;28;1566;-59
2021/01/26 07:13:01;;;;;;;;;;;;;;;18.12;62.75;99865.41;5072749;28;1617;-59
2021/01/26 07:15:32;;;;;;;;;;;;;;;18.11;63.78;99879.81;5053046;28;1508;-59
2021/01/26 07:18:04;;;;;;;;;;;;;;;18.10;63.80;99870.09;5055803;28;1917;-58
2021/01/26 07:20:35;;;;;;;;;;;;;;;18.09;63.90;99889.81;5072617;28;1732;-59
2021/01/26 07:23:26;;;;;;;;;;;;;;;18.09;63.91;99868.41;5072292;28;1494;-59
2021/01/26 07:25:57;;;;;;;;;;;;;;;18.12;63.25;99883.31;5068739;28;1592;-59
2021/01/26 07:28:40;;;;;;;;;;;;;;;18.09;63.78;99911.22;5072322;28;1536;-59
2021/01/26 07:31:05;;;;;;;;;;;;;;;18.12;63.30;99896.69;5053145;28;1576;-67
2021/01/26 07:33:54;;;;;;;;;;;;;;;18.10;63.17;99878.09;5054888;28;1642;-68
2021/01/26 07:36:34;;;;;;;;;;;;;;;17.79;63.63;99853.50;5025894;28;1542;-59
2021/01/26 07:38:59;;;;;;;;;;;;;;;18.11;63.63;99927.97;5070715;28;1641;-67
2021/01/26 07:41:40;;;;;;;;;;;;;;;18.11;63.73;99919.09;5063082;28;1462;-58
2021/01/26 07:44:11;;;;;;;;;;;;;;;18.11;63.22;99906.56;5072576;28;1464;-59
2021/01/26 07:46:56;;;;;;;;;;;;;;;18.14;63.56;99892.88;5072577;28;1908;-67
2021/01/26 07:49:28;;;;;;;;;;;;;;;18.17;63.27;99903.28;5019952;28;1659;-59
2021/01/26 07:51:56;;;;;;;;;;;;;;;18.19;63.32;99916.50;5054168;28;1538;-67
2021/01/26 07:54:29;;;;;;;;;;;;;;;18.13;63.58;99893.88;5037524;28;1547;-67
2021/01/26 07:56:57;;;;;;;;;;;;;;;18.20;62.42;99892.25;5057725;28;1878;-68
2021/01/26 07:59:25;;;;;;;;;;;;;;;18.21;62.89;99907.34;5069967;28;1396;-67
2021/01/26 08:01:55;;;;;;;;;;;;;;;18.14;63.90;99892.88;5052152;28;1403;-59
2021/01/26 08:04:21;;;;;;;;;;;;;;;18.16;63.11;99896.22;5070633;28;1514;-67
2021/01/26 08:07:02;;;;;;;;;;;;;;;18.16;62.97;99901.59;5069643;28;1443;-67
2021/01/26 08:09:47;;;;;;;;;;;;;;;18.14;62.82;99908.91;5071622;28;1443;-68
2021/01/26 08:12:17;;;;;;;;;;;;;;;18.12;63.29;99910.06;5070858;28;1447;-68
2021/01/26 08:14:46;;;;;;;;;;;;;;;18.12;63.35;99894.03;5049375;28;1586;-68
2021/01/26 08:17:14;;;;;;;;;;;;;;;18.11;63.45;99901.22;5072947;28;1977;-58
2021/01/26 08:19:52;;;;;;;;;;;;;;;18.12;62.79;99910.06;5071569;28;1537;-67
2021/01/26 08:22:29;;;;;;;;;;;;;;;18.11;62.82;99916.44;5053540;28;1542;-58
2021/01/26 08:25:17;;;;;;;;;;;;;;;18.05;62.70;99921.38;5053736;28;1551;-59
2021/01/26 08:27:42;;;;;;;;;;;;;;;18.13;63.28;99909.09;5070513;28;1718;-68
2021/01/26 08:30:09;;;;;;;;;;;;;;;18.17;63.69;99910.47;5071971;28;1600;-59
2021/01/26 08:32:34;;;;;;;;;;;;;;;18.20;63.58;99902.13;5071979;28;1202;-68
2021/01/26 08:35:00;;;;;;;;;;;;;;;18.24;63.23;99914.22;5071779;28;1530;-67
2021/01/26 08:37:42;;;;;;;;;;;;;;;18.26;63.46;99920.25;5071946;28;1885;-67
2021/01/26 08:40:12;;;;;;;;;;;;;;;18.29;63.55;99944.88;5071875;28;1415;-59
2021/01/26 08:42:40;;;;;;;;;;;;;;;18.31;63.30;99946.59;5065982;28;1562;-58
2021/01/26 08:45:07;;;;;;;;;;;;;;;18.33;63.51;99950.78;5071113;28;1600;-58
2021/01/26 08:47:48;;;;;;;;;;;;;;;18.34;63.12;99956.97;5072350;28;1252;-68
2021/01/26 08:50:27;;;;;;;;;;;;;;;18.37;63.45;99964.72;5071277;28;1688;-59
2021/01/26 08:53:13;;;;;;;;;;;;;;;18.45;62.77;99976.34;5070590;28;1739;-66
2021/01/26 08:55:40;;;;;;;;;;;;;;;18.53;62.43;99972.06;5052107;28;1642;-59
2021/01/26 08:58:09;;;;;;;;;;;;;;;18.57;62.17;99973.44;5069625;28;1961;-69
2021/01/26 09:00:45;;;;;;;;;;;;;;;18.58;62.52;100002.75;5071007;28;1447;-68
2021/01/26 09:03:26;;;;;;;;;;;;;;;18.64;61.81;100004.84;5051977;28;1466;-59
2021/01/26 09:05:59;;;;;;;;;;;;;;;18.64;62.05;100007.50;5058633;28;1510;-59
2021/01/26 09:08:40;;;;;;;;;;;;;;;18.58;62.42;99997.41;5071808;28;1412;-59
2021/01/26 09:11:07;;;;;;;;;;;;;;;18.57;62.31;100003.75;5066302;28;1462;-59
2021/01/26 09:13:33;;;;;;;;;;;;;;;18.51;62.68;100011.53;5070865;28;1641;-59
2021/01/26 09:16:02;;;;;;;;;;;;;;;18.49;62.52;100014.38;5070611;28;1691;-59
2021/01/26 09:18:29;;;;;;;;;;;;;;;18.46;62.70;100020.00;5072493;28;1960;-68
2021/01/26 09:20:59;;;;;;;;;;;;;;;18.41;62.59;100017.78;5074850;28;1547;-64
2021/01/26 09:23:25;;;;;;;;;;;;;;;18.40;62.64;100008.09;5075138;28;1565;-62
2021/01/26 09:25:51;;;;;;;;;;;;;;;18.41;62.97;100017.78;5055014;28;1645;-60
2021/01/26 09:28:17;;;;;;;;;;;;;;;18.38;63.21;100010.06;5055322;28;1723;-59
2021/01/26 09:30:44;;;;;;;;;;;;;;;18.42;63.10;100010.59;5056064;28;1684;-68
2021/01/26 09:33:10;;;;;;;;;;;;;;;18.39;63.18;100030.47;5073613;28;1432;-64
2021/01/26 09:35:36;;;;;;;;;;;;;;;18.41;62.83;100049.91;5074317;28;1979;-69
2021/01/26 09:38:02;;;;;;;;;;;;;;;18.35;62.82;100049.69;5056755;28;1948;-59
2021/01/26 09:40:27;;;;;;;;;;;;;;;18.34;63.22;100037.28;5057057;28;1788;-64
2021/01/26 09:43:11;;;;;;;;;;;;;;;18.40;62.75;100058.09;5056029;28;1710;-69
2021/01/26 09:45:37;;;;;;;;;;;;;;;18.39;63.35;100045.72;5073777;28;1537;-64
2021/01/26 09:48:02;;;;;;;;;;;;;;;18.44;63.08;100049.63;5074554;28;1497;-69
2021/01/26 09:50:28;;;;;;;;;;;;;;;18.46;63.37;100041.41;5055062;28;1685;-59
2021/01/26 09:53:03;;;;;;;;;;;;;;;18.47;63.08;100035.94;5074240;28;1800;-65
2021/01/26 09:55:30;;;;;;;;;;;;;;;18.53;63.06;100050.56;5070194;28;1625;-59
2021/01/26 09:57:56;;;;;;;;;;;;;;;18.55;62.93;100040.53;5073228;28;1889;-67
2021/01/26 10:00:23;;;;;;;;;;;;;;;18.56;62.73;100039.56;5073642;28;1568;-58
2021/01/26 10:03:00;;;;;;;;;;;;;;;18.66;62.03;100053.72;5075041;28;1542;-59
2021/01/26 10:05:27;;;;;;;;;;;;;;;18.67;61.70;100039.31;5071689;28;1736;-68
2021/01/26 10:08:07;;;;;;;;;;;;;;;18.72;61.34;100051.41;5072797;28;1779;-68
2021/01/26 10:10:33;;;;;;;;;;;;;;;18.65;60.80;100052.03;4691423;28;10000010;-58
2021/01/26 10:13:18;;;;;;;;;;;;;;;18.66;60.73;100050.19;5068151;28;1466;-58
2021/01/26 10:15:43;;;;;;;;;;;;;;;18.68;60.31;100049.06;5063508;28;1740;-69
2021/01/26 10:18:17;;;;;;;;;;;;;;;18.63;59.94;100062.03;5067345;28;1918;-59
2021/01/26 10:20:45;;;;;;;;;;;;;;;18.64;60.16;100071.78;5070347;28;1377;-68
2021/01/26 10:23:11;;;;;;;;;;;;;;;18.64;59.88;100079.81;5071357;28;1437;-68
2021/01/26 10:25:38;;;;;;;;;;;;;;;18.60;59.99;100066.84;5069832;28;1683;-58
2021/01/26 10:28:06;;;;;;;;;;;;;;;18.61;59.77;100074.75;5067031;28;1463;-59
2021/01/26 10:30:31;;;;;;;;;;;;;;;18.58;59.63;100067.03;5066241;28;1587;-69
2021/01/26 10:32:57;;;;;;;;;;;;;;;17.58;57.19;100089.00;5067017;28;1369;-67
2021/01/26 10:35:34;;;;;;;;;;;;;;;15.79;60.46;100094.16;5072301;28;1557;-59
2021/01/26 10:38:18;;;;;;;;;;;;;;;15.21;61.07;100113.19;5069183;28;1893;-59
2021/01/26 10:40:43;;;;;;;;;;;;;;;14.44;59.62;100094.56;5068738;28;1556;-58
2021/01/26 10:43:11;;;;;;;;;;;;;;;14.42;59.34;100101.84;5049342;28;1469;-59
2021/01/26 10:45:38;;;;;;;;;;;;;;;14.00;57.10;100086.47;5067101;28;1523;-66
2021/01/26 10:48:09;;;;;;;;;;;;;;;14.27;57.58;100095.94;5066951;28;1561;-66
2021/01/26 10:50:35;;;;;;;;;;;;;;;14.58;56.69;100091.69;5066980;28;1606;-67
2021/01/26 10:53:00;;;;;;;;;;;;;;;14.56;56.94;100098.94;5063730;28;1438;-58
2021/01/26 10:55:25;;;;;;;;;;;;;;;14.51;58.23;100109.94;5067076;28;1418;-64
2021/01/26 10:57:51;;;;;;;;;;;;;;;14.19;56.63;100107.16;5048480;28;1957;-65
2021/01/26 11:00:18;;;;;;;;;;;;;;;13.85;57.10;100114.25;5066084;28;1404;-64
2021/01/26 11:02:44;;;;;;;;;;;;;;;15.46;58.41;100125.34;5067836;28;1437;-64
2021/01/26 11:05:10;;;;;;;;;;;;;;;16.41;57.99;100038.13;5068446;28;1536;-57
2021/01/26 11:07:36;;;;;;;;;;;;;;;17.33;58.71;100088.63;5067787;28;1481;-65
2021/01/26 11:10:03;;;;;;;;;;;;;;;17.64;56.73;100094.63;5065864;28;2228;-57
2021/01/26 11:12:28;;;;;;;;;;;;;;;17.85;57.36;100077.59;5065787;28;1600;-65
2021/01/26 11:14:54;;;;;;;;;;;;;;;17.95;56.09;100077.59;5068004;28;1533;-65
2021/01/26 11:17:20;;;;;;;;;;;;;;;18.10;56.28;100078.78;5070048;28;1910;-57
2021/01/26 11:19:46;;;;;;;;;;;;;;;18.17;56.16;100079.88;5072620;28;1469;-65
2021/01/26 11:22:12;;;;;;;;;;;;;;;18.25;55.94;100065.78;5069742;28;1663;-66
2021/01/26 11:24:37;;;;;;;;;;;;;;;18.28;56.00;100069.00;5067205;28;1490;-57
2021/01/26 11:27:02;;;;;;;;;;;;;;;18.32;56.22;100071.38;5065664;28;1434;-66
2021/01/26 11:29:28;;;;;;;;;;;;;;;18.39;56.26;100073.31;5049781;28;1475;-57
2021/01/26 11:31:53;;;;;;;;;;;;;;;18.42;56.52;100086.41;5051857;28;1561;-57
2021/01/26 11:34:19;;;;;;;;;;;;;;;18.38;56.85;100068.97;5067517;28;1664;-57
2021/01/26 11:36:44;;;;;;;;;;;;;;;18.43;57.08;100069.34;5050420;28;1953;-57
2021/01/26 11:39:10;;;;;;;;;;;;;;;18.41;56.63;100076.69;5067230;28;1346;-65
2021/01/26 11:41:35;;;;;;;;;;;;;;;18.44;57.14;100087.09;5065796;28;1470;-65
2021/01/26 11:44:00;;;;;;;;;;;;;;;18.49;56.63;100092.84;5066607;28;1386;-57
2021/01/26 11:46:26;;;;;;;;;;;;;;;18.60;56.57;100097.19;5067664;28;1433;-57
2021/01/26 11:48:51;;;;;;;;;;;;;;;18.70;55.59;100086.38;5054198;28;1728;-65
2021/01/26 11:51:17;;;;;;;;;;;;;;;18.80;55.70;100081.00;5068832;28;1406;-65
2021/01/26 11:53:42;;;;;;;;;;;;;;;18.80;55.93;100081.88;5066886;28;1553;-58
2021/01/26 11:56:07;;;;;;;;;;;;;;;18.72;56.46;100078.19;5067065;28;1311;-65
2021/01/26 11:58:35;;;;;;;;;;;;;;;18.67;56.52;100086.69;5066212;28;1910;-65
2021/01/26 12:01:00;;;;;;;;;;;;;;;18.62;57.01;100078.25;5039998;28;1605;-65
2021/01/26 12:03:26;;;;;;;;;;;;;;;18.56;57.14;100087.75;5065952;28;1476;-65
2021/01/26 12:05:51;;;;;;;;;;;;;;;18.53;56.86;100087.22;5066722;28;1442;-57
2021/01/26 12:08:16;;;;;;;;;;;;;;;18.47;57.67;100102.03;5067360;28;1592;-57
2021/01/26 12:10:42;;;;;;;;;;;;;;;18.41;57.39;100111.47;5065712;28;2591;-64
2021/01/26 12:13:08;;;;;;;;;;;;;;;18.40;57.49;100095.56;5065616;28;1684;-57
2021/01/26 12:15:35;;;;;;;;;;;;;;;18.40;57.56;100104.47;5062113;28;1569;-57
2021/01/26 12:18:00;;;;;;;;;;;;;;;18.35;57.76;100108.56;5065795;28;2031;-57
2021/01/26 12:20:27;;;;;;;;;;;;;;;18.34;57.64;100113.06;5063893;28;1537;-66
2021/01/26 12:22:53;;;;;;;;;;;;;;;18.37;57.29;100117.28;5068341;28;1552;-64
2021/01/26 12:25:18;;;;;;;;;;;;;;;18.38;57.73;100119.81;5064113;28;1596;-65
2021/01/26 12:27:44;;;;;;;;;;;;;;;18.38;57.99;100118.97;5066627;28;1366;-65
2021/01/26 12:30:10;;;;;;;;;;;;;;;18.39;57.52;100115.31;5067011;28;1516;-65
2021/01/26 12:32:35;;;;;;;;;;;;;;;18.41;57.94;100103.44;5070375;28;1397;-61
2021/01/26 12:35:03;;;;;;;;;;;;;;;18.45;58.36;100120.06;5049005;28;1607;-58
2021/01/26 12:37:28;;;;;;;;;;;;;;;18.45;58.62;100110.19;5062397;28;1953;-59
2021/01/26 12:39:53;;;;;;;;;;;;;;;18.49;58.04;100105.41;5063800;28;1558;-60
2021/01/26 12:42:18;;;;;;;;;;;;;;;18.54;58.92;100119.16;5037873;28;1375;-62
2021/01/26 12:44:44;;;;;;;;;;;;;;;18.59;58.13;100121.41;5046506;28;1463;-66
2021/01/26 12:47:10;;;;;;;;;;;;;;;18.70;59.25;100115.84;5050031;28;1443;-69
2021/01/26 12:49:36;;;;;;;;;;;;;;;18.74;60.67;100132.47;5047107;28;1444;-68
2021/01/26 12:52:01;;;;;;;;;;;;;;;18.73;61.61;100120.06;5068074;28;1647;-68
2021/01/26 12:54:26;;;;;;;;;;;;;;;18.73;61.74;100136.16;5072778;28;1412;-64
2021/01/26 12:56:52;;;;;;;;;;;;;;;18.59;62.46;100138.31;5056279;28;1898;-63
2021/01/26 12:59:18;;;;;;;;;;;;;;;18.58;62.61;100133.09;5074115;28;1486;-60
2021/01/26 13:01:43;;;;;;;;;;;;;;;18.33;61.85;100132.78;5083521;28;1500;-65
2021/01/26 13:04:08;;;;;;;;;;;;;;;18.07;61.66;100141.47;5071970;28;1527;-60
2021/01/26 13:06:34;;;;;;;;;;;;;;;18.00;59.29;100139.50;5069868;28;1607;-59